Time,TemperatureF,DewpointF,PressureIn,WindDirection,WindDirectionDegrees,WindSpeedMPH,WindSpeedGustMPH,Humidity,HourlyPrecipIn,Conditions,Clouds,dailyrainin,SolarRadiationWatts/m^2,SoftwareType,DateUTC
2013-02-15 00:01:00,38.0,33.0,-100.00,ENE,66,3.0,4.0,81,0.00,,,0.00,0.000000,,2013-02-15 08:01:00,
2013-02-15 00:11:00,38.0,33.0,-100.00,ENE,66,3.0,4.0,81,0.00,,,0.00,0.000000,,2013-02-15 08:11:00,
2013-02-15 00:21:00,38.0,33.0,-100.00,ENE,66,3.0,4.0,81,0.00,,,0.00,0.000000,,2013-02-15 08:21:00,
2013-02-15 00:31:00,38.0,33.0,-100.00,ENE,66,3.0,4.0,81,0.00,,,0.00,0.000000,,2013-02-15 08:31:00,
2013-02-15 00:53:00,39.0,34.0,-100.00,ENE,58,3.0,5.0,82,0.00,,,0.00,0.000000,,2013-02-15 08:53:00,
2013-02-15 01:01:00,39.0,34.0,-100.00,ENE,58,3.0,5.0,82,0.00,,,0.00,0.000000,,2013-02-15 09:01:00,
2013-02-15 01:12:00,39.0,34.0,-100.00,ENE,58,3.0,5.0,82,0.00,,,0.00,0.000000,,2013-02-15 09:12:00,
2013-02-15 01:21:00,39.0,34.0,-100.00,ENE,58,3.0,5.0,82,0.00,,,0.00,0.000000,,2013-02-15 09:21:00,
2013-02-15 01:31:00,39.0,34.0,-100.00,ENE,58,3.0,5.0,82,0.00,,,0.00,0.000000,,2013-02-15 09:31:00,
2013-02-15 01:52:00,39.0,34.0,-100.00,ENE,62,3.0,5.0,82,0.00,,,0.00,0.000000,,2013-02-15 09:52:00,
2013-02-15 02:01:00,39.0,34.0,-100.00,ENE,62,3.0,5.0,82,0.00,,,0.00,0.000000,,2013-02-15 10:01:00,
2013-02-15 02:11:00,39.0,34.0,-100.00,ENE,62,3.0,5.0,82,0.00,,,0.00,0.000000,,2013-02-15 10:11:00,
2013-02-15 02:21:00,39.0,34.0,-100.00,ENE,62,3.0,5.0,82,0.00,,,0.00,0.000000,,2013-02-15 10:21:00,
2013-02-15 02:31:00,39.0,34.0,-100.00,ENE,62,3.0,5.0,82,0.00,,,0.00,0.000000,,2013-02-15 10:31:00,
2013-02-15 02:52:00,37.0,33.0,-100.00,ENE,72,2.0,5.0,85,0.00,,,0.00,0.000000,,2013-02-15 10:52:00,
2013-02-15 03:01:00,37.0,33.0,-100.00,ENE,72,2.0,5.0,85,0.00,,,0.00,0.000000,,2013-02-15 11:01:00,
2013-02-15 03:11:00,37.0,33.0,-100.00,ENE,72,2.0,5.0,85,0.00,,,0.00,0.000000,,2013-02-15 11:11:00,
2013-02-15 03:22:00,37.0,33.0,-100.00,ENE,72,2.0,5.0,85,0.00,,,0.00,0.000000,,2013-02-15 11:22:00,
2013-02-15 03:31:00,37.0,33.0,-100.00,ENE,72,2.0,5.0,85,0.00,,,0.00,0.000000,,2013-02-15 11:31:00,
2013-02-15 03:52:00,37.0,34.0,-100.00,ENE,62,3.0,6.0,89,0.00,,,0.00,0.000000,,2013-02-15 11:52:00,
2013-02-15 04:01:00,37.0,34.0,-100.00,ENE,62,3.0,6.0,89,0.00,,,0.00,0.000000,,2013-02-15 12:01:00,
2013-02-15 04:11:00,37.0,34.0,-100.00,ENE,62,3.0,6.0,89,0.00,,,0.00,0.000000,,2013-02-15 12:11:00,
2013-02-15 04:21:00,37.0,34.0,-100.00,ENE,62,3.0,6.0,89,0.00,,,0.00,0.000000,,2013-02-15 12:21:00,
2013-02-15 04:31:00,37.0,34.0,-100.00,ENE,62,3.0,6.0,89,0.00,,,0.00,0.000000,,2013-02-15 12:31:00,
2013-02-15 04:52:00,36.0,34.0,-100.00,SSE,147,2.0,5.0,94,0.00,,,0.00,0.000000,,2013-02-15 12:52:00,
2013-02-15 05:02:00,36.0,34.0,-100.00,SSE,147,2.0,5.0,94,0.00,,,0.00,0.000000,,2013-02-15 13:02:00,
2013-02-15 05:11:00,36.0,34.0,-100.00,SSE,147,2.0,5.0,94,0.00,,,0.00,0.000000,,2013-02-15 13:11:00,
2013-02-15 05:21:00,36.0,34.0,-100.00,SSE,147,2.0,5.0,94,0.00,,,0.00,0.000000,,2013-02-15 13:21:00,
2013-02-15 05:31:00,36.0,34.0,-100.00,SSE,147,2.0,5.0,94,0.00,,,0.00,0.000000,,2013-02-15 13:31:00,
2013-02-15 05:52:00,36.0,35.0,-100.00,SW,236,5.0,7.0,95,0.00,,,0.00,0.000000,,2013-02-15 13:52:00,
2013-02-15 06:01:00,36.0,35.0,-100.00,SW,236,5.0,7.0,95,0.00,,,0.00,0.000000,,2013-02-15 14:01:00,
2013-02-15 06:11:00,36.0,35.0,-100.00,SW,236,5.0,7.0,95,0.00,,,0.00,0.000000,,2013-02-15 14:11:00,
2013-02-15 06:21:00,36.0,35.0,-100.00,SW,236,5.0,7.0,95,0.00,,,0.00,0.000000,,2013-02-15 14:21:00,
2013-02-15 06:32:00,36.0,35.0,-100.00,SW,236,5.0,7.0,95,0.00,,,0.00,0.000000,,2013-02-15 14:32:00,
2013-02-15 06:52:00,36.0,34.0,-100.00,South,177,2.0,5.0,91,0.00,,,0.00,0.000000,,2013-02-15 14:52:00,
2013-02-15 07:01:00,36.0,34.0,-100.00,South,177,2.0,5.0,91,0.00,,,0.00,0.000000,,2013-02-15 15:01:00,
2013-02-15 07:11:00,36.0,34.0,-100.00,South,177,2.0,5.0,91,0.00,,,0.00,0.000000,,2013-02-15 15:11:00,
2013-02-15 07:21:00,36.0,34.0,-100.00,South,177,2.0,5.0,91,0.00,,,0.00,0.000000,,2013-02-15 15:21:00,
2013-02-15 07:32:00,36.0,34.0,-100.00,South,177,2.0,5.0,91,0.00,,,0.00,0.000000,,2013-02-15 15:32:00,
2013-02-15 07:52:00,38.0,36.0,-100.00,ESE,117,2.0,4.0,94,0.00,,,0.00,16.000000,,2013-02-15 15:52:00,
2013-02-15 08:01:00,38.0,36.0,-100.00,ESE,117,2.0,4.0,94,0.00,,,0.00,16.000000,,2013-02-15 16:01:00,
2013-02-15 08:11:00,38.0,36.0,-100.00,ESE,117,2.0,4.0,94,0.00,,,0.00,16.000000,,2013-02-15 16:11:00,
2013-02-15 08:22:00,38.0,36.0,-100.00,ESE,117,2.0,4.0,94,0.00,,,0.00,16.000000,,2013-02-15 16:22:00,
2013-02-15 08:31:00,38.0,36.0,-100.00,ESE,117,2.0,4.0,94,0.00,,,0.00,16.000000,,2013-02-15 16:31:00,
2013-02-15 08:52:00,42.0,38.0,-100.00,SSE,156,2.0,4.0,84,0.00,,,0.00,159.000000,,2013-02-15 16:52:00,
2013-02-15 09:01:00,42.0,38.0,-100.00,SSE,156,2.0,4.0,84,0.00,,,0.00,159.000000,,2013-02-15 17:01:00,
2013-02-15 09:31:00,42.0,38.0,-100.00,SSE,156,2.0,4.0,84,0.00,,,0.00,159.000000,,2013-02-15 17:31:00,
2013-02-15 09:52:00,44.0,36.0,-100.00,East,85,4.0,6.0,74,0.00,,,0.00,307.000000,,2013-02-15 17:52:00,
2013-02-15 10:01:00,44.0,36.0,-100.00,East,85,4.0,6.0,74,0.00,,,0.00,307.000000,,2013-02-15 18:01:00,
2013-02-15 10:11:00,44.0,36.0,-100.00,East,85,4.0,6.0,74,0.00,,,0.00,307.000000,,2013-02-15 18:11:00,
2013-02-15 10:21:00,44.0,36.0,-100.00,East,85,4.0,6.0,74,0.00,,,0.00,307.000000,,2013-02-15 18:21:00,
2013-02-15 10:31:00,44.0,36.0,-100.00,East,85,4.0,6.0,74,0.00,,,0.00,307.000000,,2013-02-15 18:31:00,
2013-02-15 10:52:00,46.0,35.0,-100.00,ESE,115,4.0,7.0,65,0.00,,,0.00,439.000000,,2013-02-15 18:52:00,
2013-02-15 11:01:00,46.0,35.0,-100.00,ESE,115,4.0,7.0,65,0.00,,,0.00,439.000000,,2013-02-15 19:01:00,
2013-02-15 11:11:00,46.0,35.0,-100.00,ESE,115,4.0,7.0,65,0.00,,,0.00,439.000000,,2013-02-15 19:11:00,
2013-02-15 11:21:00,46.0,35.0,-100.00,ESE,115,4.0,7.0,65,0.00,,,0.00,439.000000,,2013-02-15 19:21:00,
2013-02-15 11:31:00,46.0,35.0,-100.00,ESE,115,4.0,7.0,65,0.00,,,0.00,439.000000,,2013-02-15 19:31:00,
2013-02-15 11:52:00,47.0,35.0,-100.00,SSE,155,4.0,6.0,64,0.00,,,0.00,532.000000,,2013-02-15 19:52:00,
2013-02-15 12:01:00,47.0,35.0,-100.00,SSE,155,4.0,6.0,64,0.00,,,0.00,532.000000,,2013-02-15 20:01:00,
2013-02-15 12:11:00,47.0,35.0,-100.00,SSE,155,4.0,6.0,64,0.00,,,0.00,532.000000,,2013-02-15 20:11:00,
2013-02-15 12:21:00,47.0,35.0,-100.00,SSE,155,4.0,6.0,64,0.00,,,0.00,532.000000,,2013-02-15 20:21:00,
2013-02-15 12:32:00,47.0,35.0,-100.00,SSE,155,4.0,6.0,64,0.00,,,0.00,532.000000,,2013-02-15 20:32:00,
2013-02-15 12:52:00,49.0,37.0,-100.00,East,82,4.0,7.0,64,0.00,,,0.00,572.000000,,2013-02-15 20:52:00,
2013-02-15 13:01:00,49.0,37.0,-100.00,East,82,4.0,7.0,64,0.00,,,0.00,572.000000,,2013-02-15 21:01:00,
2013-02-15 13:11:00,49.0,37.0,-100.00,East,82,4.0,7.0,64,0.00,,,0.00,572.000000,,2013-02-15 21:11:00,
2013-02-15 13:21:00,49.0,37.0,-100.00,East,82,4.0,7.0,64,0.00,,,0.00,572.000000,,2013-02-15 21:21:00,
2013-02-15 13:31:00,49.0,37.0,-100.00,East,82,4.0,7.0,64,0.00,,,0.00,572.000000,,2013-02-15 21:31:00,
2013-02-15 13:52:00,50.0,35.0,-100.00,ESE,107,4.0,7.0,56,0.00,,,0.00,555.000000,,2013-02-15 21:52:00,
2013-02-15 14:02:00,50.0,35.0,-100.00,ESE,107,4.0,7.0,56,0.00,,,0.00,555.000000,,2013-02-15 22:02:00,
2013-02-15 14:11:00,50.0,35.0,-100.00,ESE,107,4.0,7.0,56,0.00,,,0.00,555.000000,,2013-02-15 22:11:00,
2013-02-15 14:21:00,50.0,35.0,-100.00,ESE,107,4.0,7.0,56,0.00,,,0.00,555.000000,,2013-02-15 22:21:00,
2013-02-15 14:31:00,50.0,35.0,-100.00,ESE,107,4.0,7.0,56,0.00,,,0.00,555.000000,,2013-02-15 22:31:00,
2013-02-15 14:52:00,52.0,35.0,-100.00,ESE,118,4.0,7.0,53,0.00,,,-99.99,483.000000,,2013-02-15 22:52:00,
2013-02-15 15:02:00,52.0,35.0,-100.00,ESE,118,4.0,7.0,53,0.00,,,-99.99,483.000000,,2013-02-15 23:02:00,
2013-02-15 15:11:00,52.0,35.0,-100.00,ESE,118,4.0,7.0,53,0.00,,,-99.99,483.000000,,2013-02-15 23:11:00,
2013-02-15 15:21:00,52.0,35.0,-100.00,ESE,118,4.0,7.0,53,0.00,,,-99.99,483.000000,,2013-02-15 23:21:00,
2013-02-15 15:31:00,52.0,35.0,-100.00,ESE,118,4.0,7.0,53,0.00,,,-99.99,483.000000,,2013-02-15 23:31:00,
2013-02-15 15:52:00,53.0,37.0,-100.00,SSE,154,3.0,6.0,54,0.00,,,0.00,363.000000,,2013-02-15 23:52:00,
2013-02-15 16:02:00,53.0,37.0,-100.00,SSE,154,3.0,6.0,54,0.00,,,0.00,363.000000,,2013-02-16 00:02:00,
2013-02-15 16:11:00,53.0,37.0,-100.00,SSE,154,3.0,6.0,54,0.00,,,0.00,363.000000,,2013-02-16 00:11:00,
2013-02-15 16:21:00,53.0,37.0,-100.00,SSE,154,3.0,6.0,54,0.00,,,0.00,363.000000,,2013-02-16 00:21:00,
2013-02-15 16:31:00,53.0,37.0,-100.00,SSE,154,3.0,6.0,54,0.00,,,0.00,363.000000,,2013-02-16 00:31:00,
2013-02-15 16:52:00,50.0,37.0,-100.00,ESE,116,2.0,5.0,60,0.00,,,0.00,212.000000,,2013-02-16 00:52:00,
2013-02-15 17:02:00,50.0,37.0,-100.00,ESE,116,2.0,5.0,60,0.00,,,0.00,212.000000,,2013-02-16 01:02:00,
2013-02-15 17:11:00,50.0,37.0,-100.00,ESE,116,2.0,5.0,60,0.00,,,0.00,212.000000,,2013-02-16 01:11:00,
2013-02-15 17:21:00,50.0,37.0,-100.00,ESE,116,2.0,5.0,60,0.00,,,0.00,212.000000,,2013-02-16 01:21:00,
2013-02-15 17:31:00,50.0,37.0,-100.00,ESE,116,2.0,5.0,60,0.00,,,0.00,212.000000,,2013-02-16 01:31:00,
2013-02-15 17:52:00,45.0,35.0,-100.00,ENE,64,1.0,4.0,67,0.00,,,0.00,37.000000,,2013-02-16 01:52:00,
2013-02-15 18:01:00,45.0,35.0,-100.00,ENE,64,1.0,4.0,67,0.00,,,0.00,37.000000,,2013-02-16 02:01:00,
2013-02-15 18:11:00,45.0,35.0,-100.00,ENE,64,1.0,4.0,67,0.00,,,0.00,37.000000,,2013-02-16 02:11:00,
2013-02-15 18:21:00,45.0,35.0,-100.00,ENE,64,1.0,4.0,67,0.00,,,0.00,37.000000,,2013-02-16 02:21:00,
2013-02-15 18:31:00,45.0,35.0,-100.00,ENE,64,1.0,4.0,67,0.00,,,0.00,37.000000,,2013-02-16 02:31:00,
2013-02-15 18:52:00,44.0,35.0,-100.00,NW,306,3.0,4.0,70,0.00,,,0.00,1.000000,,2013-02-16 02:52:00,
2013-02-15 19:01:00,44.0,35.0,-100.00,NW,306,3.0,4.0,70,0.00,,,0.00,1.000000,,2013-02-16 03:01:00,
2013-02-15 19:11:00,44.0,35.0,-100.00,NW,306,3.0,4.0,70,0.00,,,0.00,1.000000,,2013-02-16 03:11:00,
2013-02-15 19:21:00,44.0,35.0,-100.00,NW,306,3.0,4.0,70,0.00,,,0.00,1.000000,,2013-02-16 03:21:00,
2013-02-15 19:31:00,44.0,35.0,-100.00,NW,306,3.0,4.0,70,0.00,,,0.00,1.000000,,2013-02-16 03:31:00,
2013-02-15 19:52:00,43.0,35.0,-100.00,SSW,203,2.0,4.0,73,0.00,,,0.00,0.000000,,2013-02-16 03:52:00,
2013-02-15 20:01:00,43.0,35.0,-100.00,SSW,203,2.0,4.0,73,0.00,,,0.00,0.000000,,2013-02-16 04:01:00,
2013-02-15 20:11:00,43.0,35.0,-100.00,SSW,203,2.0,4.0,73,0.00,,,0.00,0.000000,,2013-02-16 04:11:00,
2013-02-15 20:21:00,43.0,35.0,-100.00,SSW,203,2.0,4.0,73,0.00,,,0.00,0.000000,,2013-02-16 04:21:00,
2013-02-15 20:52:00,42.0,35.0,-100.00,WSW,257,4.0,6.0,76,0.00,,,0.00,0.000000,,2013-02-16 04:52:00,
2013-02-15 21:01:00,42.0,35.0,-100.00,WSW,257,4.0,6.0,76,0.00,,,0.00,0.000000,,2013-02-16 05:01:00,
2013-02-15 21:11:00,42.0,35.0,-100.00,WSW,257,4.0,6.0,76,0.00,,,0.00,0.000000,,2013-02-16 05:11:00,
2013-02-15 21:21:00,42.0,35.0,-100.00,WSW,257,4.0,6.0,76,0.00,,,0.00,0.000000,,2013-02-16 05:21:00,
2013-02-15 21:31:00,42.0,35.0,-100.00,WSW,257,4.0,6.0,76,0.00,,,0.00,0.000000,,2013-02-16 05:31:00,
2013-02-15 21:52:00,42.0,35.0,-100.00,SW,230,4.0,6.0,76,0.00,,,0.00,0.000000,,2013-02-16 05:52:00,
2013-02-15 22:01:00,42.0,35.0,-100.00,SW,230,4.0,6.0,76,0.00,,,0.00,0.000000,,2013-02-16 06:01:00,
2013-02-15 22:11:00,42.0,35.0,-100.00,SW,230,4.0,6.0,76,0.00,,,0.00,0.000000,,2013-02-16 06:11:00,
2013-02-15 22:21:00,42.0,35.0,-100.00,SW,230,4.0,6.0,76,0.00,,,0.00,0.000000,,2013-02-16 06:21:00,
2013-02-15 22:32:00,42.0,35.0,-100.00,SW,230,4.0,6.0,76,0.00,,,0.00,0.000000,,2013-02-16 06:32:00,
2013-02-15 22:52:00,42.0,35.0,-100.00,SW,233,4.0,7.0,75,0.00,,,0.00,0.000000,,2013-02-16 06:52:00,
2013-02-15 23:02:00,42.0,35.0,-100.00,SW,233,4.0,7.0,75,0.00,,,0.00,0.000000,,2013-02-16 07:02:00,
2013-02-15 23:11:00,42.0,35.0,-100.00,SW,233,4.0,7.0,75,0.00,,,0.00,0.000000,,2013-02-16 07:11:00,
2013-02-15 23:21:00,42.0,35.0,-100.00,SW,233,4.0,7.0,75,0.00,,,0.00,0.000000,,2013-02-16 07:21:00,
2013-02-15 23:31:00,42.0,35.0,-100.00,SW,233,4.0,7.0,75,0.00,,,0.00,0.000000,,2013-02-16 07:31:00,
2013-02-15 23:53:00,42.0,35.0,-100.00,SW,219,4.0,6.0,76,0.00,,,-99.99,0.000000,,2013-02-16 07:53:00,